sensor_id;sensor_type;location;lat;lon;timestamp;P1;durP1;ratioP1;P2;durP2;ratioP2
65315;SDS011;51920;53.952;10.292;2023-12-20T00:01:15;9.77;;;3.08;;
65315;SDS011;51920;53.952;10.292;2023-12-20T00:03:42;11.20;;;2.38;;
65315;SDS011;51920;53.952;10.292;2023-12-20T00:06:09;10.45;;;2.45;;
65315;SDS011;51920;53.952;10.292;2023-12-20T00:08:37;12.83;;;2.67;;
65315;SDS011;51920;53.952;10.292;2023-12-20T00:11:04;8.80;;;2.22;;
65315;SDS011;51920;53.952;10.292;2023-12-20T00:13:31;13.82;;;2.80;;
65315;SDS011;51920;53.952;10.292;2023-12-20T00:15:57;10.82;;;2.30;;
65315;SDS011;51920;53.952;10.292;2023-12-20T00:18:24;7.93;;;2.28;;
65315;SDS011;51920;53.952;10.292;2023-12-20T00:20:51;13.57;;;2.40;;
65315;SDS011;51920;53.952;10.292;2023-12-20T00:23:18;12.48;;;2.72;;
65315;SDS011;51920;53.952;10.292;2023-12-20T00:25:45;11.48;;;2.78;;
65315;SDS011;51920;53.952;10.292;2023-12-20T00:28:12;12.02;;;2.50;;
65315;SDS011;51920;53.952;10.292;2023-12-20T00:30:39;9.65;;;2.60;;
65315;SDS011;51920;53.952;10.292;2023-12-20T00:33:05;10.60;;;2.27;;
65315;SDS011;51920;53.952;10.292;2023-12-20T00:35:32;9.60;;;2.40;;
65315;SDS011;51920;53.952;10.292;2023-12-20T00:37:59;8.50;;;2.22;;
65315;SDS011;51920;53.952;10.292;2023-12-20T00:40:27;9.80;;;2.70;;
65315;SDS011;51920;53.952;10.292;2023-12-20T00:42:54;11.35;;;2.70;;
65315;SDS011;51920;53.952;10.292;2023-12-20T00:45:21;6.63;;;2.10;;
65315;SDS011;51920;53.952;10.292;2023-12-20T00:47:48;10.75;;;2.10;;
65315;SDS011;51920;53.952;10.292;2023-12-20T00:50:15;16.95;;;2.53;;
65315;SDS011;51920;53.952;10.292;2023-12-20T00:52:42;9.27;;;2.10;;
65315;SDS011;51920;53.952;10.292;2023-12-20T00:55:09;13.90;;;2.20;;
65315;SDS011;51920;53.952;10.292;2023-12-20T00:57:36;6.00;;;1.53;;
65315;SDS011;51920;53.952;10.292;2023-12-20T01:00:03;8.25;;;2.22;;
65315;SDS011;51920;53.952;10.292;2023-12-20T01:02:31;12.65;;;2.03;;
65315;SDS011;51920;53.952;10.292;2023-12-20T01:04:57;11.20;;;2.10;;
65315;SDS011;51920;53.952;10.292;2023-12-20T01:07:24;10.15;;;2.00;;
65315;SDS011;51920;53.952;10.292;2023-12-20T01:09:51;7.53;;;1.80;;
65315;SDS011;51920;53.952;10.292;2023-12-20T01:12:18;8.90;;;1.90;;
65315;SDS011;51920;53.952;10.292;2023-12-20T01:14:46;7.15;;;2.38;;
65315;SDS011;51920;53.952;10.292;2023-12-20T01:17:13;12.68;;;2.20;;
65315;SDS011;51920;53.952;10.292;2023-12-20T01:19:40;8.20;;;2.10;;
65315;SDS011;51920;53.952;10.292;2023-12-20T01:22:07;15.00;;;2.13;;
65315;SDS011;51920;53.952;10.292;2023-12-20T01:24:34;13.35;;;2.28;;
65315;SDS011;51920;53.952;10.292;2023-12-20T01:27:01;6.45;;;1.70;;
65315;SDS011;51920;53.952;10.292;2023-12-20T01:29:28;10.18;;;2.17;;
65315;SDS011;51920;53.952;10.292;2023-12-20T01:31:55;7.50;;;2.10;;
65315;SDS011;51920;53.952;10.292;2023-12-20T01:34:22;5.50;;;1.93;;
65315;SDS011;51920;53.952;10.292;2023-12-20T01:36:49;10.75;;;1.80;;
65315;SDS011;51920;53.952;10.292;2023-12-20T01:39:16;7.90;;;2.08;;
65315;SDS011;51920;53.952;10.292;2023-12-20T01:41:46;8.40;;;2.20;;
65315;SDS011;51920;53.952;10.292;2023-12-20T01:44:13;13.45;;;2.33;;
65315;SDS011;51920;53.952;10.292;2023-12-20T01:46:39;10.60;;;2.13;;
65315;SDS011;51920;53.952;10.292;2023-12-20T01:49:07;9.07;;;2.50;;
65315;SDS011;51920;53.952;10.292;2023-12-20T01:51:34;8.35;;;2.13;;
65315;SDS011;51920;53.952;10.292;2023-12-20T01:54:02;9.00;;;2.30;;
65315;SDS011;51920;53.952;10.292;2023-12-20T01:56:31;10.18;;;2.13;;
65315;SDS011;51920;53.952;10.292;2023-12-20T01:58:58;10.13;;;2.10;;
65315;SDS011;51920;53.952;10.292;2023-12-20T02:01:27;7.75;;;2.00;;
65315;SDS011;51920;53.952;10.292;2023-12-20T02:03:55;9.32;;;2.30;;
65315;SDS011;51920;53.952;10.292;2023-12-20T02:06:23;11.50;;;2.10;;
65315;SDS011;51920;53.952;10.292;2023-12-20T02:08:53;14.18;;;2.60;;
65315;SDS011;51920;53.952;10.292;2023-12-20T02:11:20;9.40;;;2.00;;
65315;SDS011;51920;53.952;10.292;2023-12-20T02:13:47;9.02;;;2.25;;
65315;SDS011;51920;53.952;10.292;2023-12-20T02:16:14;9.65;;;2.50;;
65315;SDS011;51920;53.952;10.292;2023-12-20T02:18:42;8.05;;;1.85;;
65315;SDS011;51920;53.952;10.292;2023-12-20T02:21:10;11.95;;;2.20;;
65315;SDS011;51920;53.952;10.292;2023-12-20T02:23:37;8.20;;;2.10;;
65315;SDS011;51920;53.952;10.292;2023-12-20T02:26:04;11.18;;;2.20;;
65315;SDS011;51920;53.952;10.292;2023-12-20T02:28:33;8.38;;;2.08;;
65315;SDS011;51920;53.952;10.292;2023-12-20T02:31:00;15.18;;;2.33;;
65315;SDS011;51920;53.952;10.292;2023-12-20T02:33:28;7.40;;;2.17;;
65315;SDS011;51920;53.952;10.292;2023-12-20T02:35:54;8.70;;;1.90;;
65315;SDS011;51920;53.952;10.292;2023-12-20T02:38:21;6.03;;;1.73;;
65315;SDS011;51920;53.952;10.292;2023-12-20T02:40:48;9.07;;;2.20;;
65315;SDS011;51920;53.952;10.292;2023-12-20T02:43:15;8.60;;;1.90;;
65315;SDS011;51920;53.952;10.292;2023-12-20T02:45:42;11.90;;;2.72;;
65315;SDS011;51920;53.952;10.292;2023-12-20T02:48:09;8.23;;;2.17;;
65315;SDS011;51920;53.952;10.292;2023-12-20T02:50:36;11.75;;;2.17;;
65315;SDS011;51920;53.952;10.292;2023-12-20T02:53:03;11.50;;;2.97;;
65315;SDS011;51920;53.952;10.292;2023-12-20T02:55:30;6.72;;;2.50;;
65315;SDS011;51920;53.952;10.292;2023-12-20T02:57:57;8.23;;;2.50;;
65315;SDS011;51920;53.952;10.292;2023-12-20T03:00:24;10.57;;;2.60;;
65315;SDS011;51920;53.952;10.292;2023-12-20T03:02:51;12.05;;;2.90;;
65315;SDS011;51920;53.952;10.292;2023-12-20T03:05:18;12.55;;;2.80;;
65315;SDS011;51920;53.952;10.292;2023-12-20T03:07:45;10.05;;;2.58;;
65315;SDS011;51920;53.952;10.292;2023-12-20T03:10:12;9.60;;;2.90;;
65315;SDS011;51920;53.952;10.292;2023-12-20T03:12:40;13.23;;;2.70;;
65315;SDS011;51920;53.952;10.292;2023-12-20T03:15:07;7.85;;;2.35;;
65315;SDS011;51920;53.952;10.292;2023-12-20T03:17:35;8.98;;;2.80;;
65315;SDS011;51920;53.952;10.292;2023-12-20T03:20:02;8.00;;;2.58;;
65315;SDS011;51920;53.952;10.292;2023-12-20T03:22:29;12.35;;;3.38;;
65315;SDS011;51920;53.952;10.292;2023-12-20T03:24:56;6.73;;;2.63;;
65315;SDS011;51920;53.952;10.292;2023-12-20T03:27:22;11.20;;;2.75;;
65315;SDS011;51920;53.952;10.292;2023-12-20T03:29:49;9.43;;;2.67;;
65315;SDS011;51920;53.952;10.292;2023-12-20T03:32:16;6.93;;;2.40;;
65315;SDS011;51920;53.952;10.292;2023-12-20T03:34:43;7.80;;;2.60;;
65315;SDS011;51920;53.952;10.292;2023-12-20T03:37:10;4.67;;;2.03;;
65315;SDS011;51920;53.952;10.292;2023-12-20T03:39:37;9.77;;;2.45;;
65315;SDS011;51920;53.952;10.292;2023-12-20T03:42:04;7.72;;;2.13;;
65315;SDS011;51920;53.952;10.292;2023-12-20T03:44:30;9.65;;;2.33;;
65315;SDS011;51920;53.952;10.292;2023-12-20T03:46:57;6.57;;;2.17;;
65315;SDS011;51920;53.952;10.292;2023-12-20T03:49:24;9.23;;;2.20;;
65315;SDS011;51920;53.952;10.292;2023-12-20T03:51:51;9.75;;;2.22;;
65315;SDS011;51920;53.952;10.292;2023-12-20T03:54:18;9.15;;;2.17;;
65315;SDS011;51920;53.952;10.292;2023-12-20T03:56:45;7.00;;;1.90;;
65315;SDS011;51920;53.952;10.292;2023-12-20T03:59:12;9.20;;;2.33;;
65315;SDS011;51920;53.952;10.292;2023-12-20T04:01:38;9.07;;;2.00;;
65315;SDS011;51920;53.952;10.292;2023-12-20T04:04:10;12.68;;;2.30;;
65315;SDS011;51920;53.952;10.292;2023-12-20T04:06:37;5.93;;;2.47;;
65315;SDS011;51920;53.952;10.292;2023-12-20T04:09:04;8.30;;;2.28;;
65315;SDS011;51920;53.952;10.292;2023-12-20T04:11:31;10.85;;;2.53;;
65315;SDS011;51920;53.952;10.292;2023-12-20T04:13:58;7.30;;;2.40;;
65315;SDS011;51920;53.952;10.292;2023-12-20T04:16:24;8.60;;;2.28;;
65315;SDS011;51920;53.952;10.292;2023-12-20T04:18:51;11.93;;;2.88;;
65315;SDS011;51920;53.952;10.292;2023-12-20T04:21:18;8.85;;;2.70;;
65315;SDS011;51920;53.952;10.292;2023-12-20T04:23:45;6.35;;;2.35;;
65315;SDS011;51920;53.952;10.292;2023-12-20T04:26:11;6.87;;;2.40;;
65315;SDS011;51920;53.952;10.292;2023-12-20T04:28:38;8.90;;;2.40;;
65315;SDS011;51920;53.952;10.292;2023-12-20T04:31:05;10.63;;;2.55;;
65315;SDS011;51920;53.952;10.292;2023-12-20T04:33:32;6.78;;;2.55;;
65315;SDS011;51920;53.952;10.292;2023-12-20T04:35:59;8.80;;;2.65;;
65315;SDS011;51920;53.952;10.292;2023-12-20T04:38:28;10.77;;;2.27;;
65315;SDS011;51920;53.952;10.292;2023-12-20T04:40:54;9.55;;;2.42;;
65315;SDS011;51920;53.952;10.292;2023-12-20T04:43:21;9.63;;;2.65;;
65315;SDS011;51920;53.952;10.292;2023-12-20T04:45:48;7.65;;;2.63;;
65315;SDS011;51920;53.952;10.292;2023-12-20T04:48:15;9.70;;;2.92;;
65315;SDS011;51920;53.952;10.292;2023-12-20T04:50:41;8.37;;;2.40;;
65315;SDS011;51920;53.952;10.292;2023-12-20T04:53:08;8.10;;;2.33;;
65315;SDS011;51920;53.952;10.292;2023-12-20T04:55:35;9.73;;;2.70;;
65315;SDS011;51920;53.952;10.292;2023-12-20T04:58:02;12.60;;;2.92;;
65315;SDS011;51920;53.952;10.292;2023-12-20T05:00:30;7.03;;;2.78;;
65315;SDS011;51920;53.952;10.292;2023-12-20T05:02:57;10.13;;;2.53;;
65315;SDS011;51920;53.952;10.292;2023-12-20T05:05:24;7.18;;;2.30;;
65315;SDS011;51920;53.952;10.292;2023-12-20T05:07:50;11.60;;;3.13;;
65315;SDS011;51920;53.952;10.292;2023-12-20T05:10:19;7.90;;;2.78;;
65315;SDS011;51920;53.952;10.292;2023-12-20T05:12:45;9.25;;;3.00;;
65315;SDS011;51920;53.952;10.292;2023-12-20T05:15:12;11.83;;;2.60;;
65315;SDS011;51920;53.952;10.292;2023-12-20T05:17:39;8.45;;;2.53;;
65315;SDS011;51920;53.952;10.292;2023-12-20T05:20:06;10.35;;;2.83;;
65315;SDS011;51920;53.952;10.292;2023-12-20T05:22:34;8.57;;;2.60;;
65315;SDS011;51920;53.952;10.292;2023-12-20T05:25:01;12.48;;;3.30;;
65315;SDS011;51920;53.952;10.292;2023-12-20T05:27:27;9.27;;;2.77;;
65315;SDS011;51920;53.952;10.292;2023-12-20T05:29:54;7.45;;;2.55;;
65315;SDS011;51920;53.952;10.292;2023-12-20T05:32:24;8.10;;;2.58;;
65315;SDS011;51920;53.952;10.292;2023-12-20T05:34:51;11.43;;;2.50;;
65315;SDS011;51920;53.952;10.292;2023-12-20T05:37:18;11.65;;;2.90;;
65315;SDS011;51920;53.952;10.292;2023-12-20T05:39:45;11.50;;;2.93;;
65315;SDS011;51920;53.952;10.292;2023-12-20T05:42:12;9.35;;;2.58;;
65315;SDS011;51920;53.952;10.292;2023-12-20T05:44:39;10.32;;;2.70;;
65315;SDS011;51920;53.952;10.292;2023-12-20T05:47:06;11.07;;;2.70;;
65315;SDS011;51920;53.952;10.292;2023-12-20T05:49:32;8.80;;;2.90;;
65315;SDS011;51920;53.952;10.292;2023-12-20T05:51:59;6.07;;;2.27;;
65315;SDS011;51920;53.952;10.292;2023-12-20T05:54:26;7.70;;;2.72;;
65315;SDS011;51920;53.952;10.292;2023-12-20T05:56:53;6.22;;;1.98;;
65315;SDS011;51920;53.952;10.292;2023-12-20T05:59:20;8.93;;;2.45;;
65315;SDS011;51920;53.952;10.292;2023-12-20T06:01:47;7.07;;;2.70;;
65315;SDS011;51920;53.952;10.292;2023-12-20T06:04:14;6.50;;;2.10;;
65315;SDS011;51920;53.952;10.292;2023-12-20T06:06:41;7.40;;;2.08;;
65315;SDS011;51920;53.952;10.292;2023-12-20T06:09:09;9.20;;;2.60;;
65315;SDS011;51920;53.952;10.292;2023-12-20T06:11:37;11.32;;;2.38;;
65315;SDS011;51920;53.952;10.292;2023-12-20T06:14:04;8.10;;;2.17;;
65315;SDS011;51920;53.952;10.292;2023-12-20T06:16:31;7.93;;;2.20;;
65315;SDS011;51920;53.952;10.292;2023-12-20T06:18:58;6.25;;;2.22;;
65315;SDS011;51920;53.952;10.292;2023-12-20T06:21:24;8.73;;;2.53;;
65315;SDS011;51920;53.952;10.292;2023-12-20T06:23:51;10.90;;;2.40;;
65315;SDS011;51920;53.952;10.292;2023-12-20T06:26:18;9.82;;;2.35;;
65315;SDS011;51920;53.952;10.292;2023-12-20T06:28:45;7.50;;;2.33;;
65315;SDS011;51920;53.952;10.292;2023-12-20T06:31:13;9.90;;;2.40;;
65315;SDS011;51920;53.952;10.292;2023-12-20T06:33:40;11.48;;;2.75;;
65315;SDS011;51920;53.952;10.292;2023-12-20T06:36:13;7.63;;;2.40;;
65315;SDS011;51920;53.952;10.292;2023-12-20T06:38:41;13.32;;;2.92;;
65315;SDS011;51920;53.952;10.292;2023-12-20T06:41:08;11.20;;;2.50;;
65315;SDS011;51920;53.952;10.292;2023-12-20T06:43:39;10.13;;;2.78;;
65315;SDS011;51920;53.952;10.292;2023-12-20T06:46:08;8.45;;;3.05;;
65315;SDS011;51920;53.952;10.292;2023-12-20T06:48:35;9.43;;;2.30;;
65315;SDS011;51920;53.952;10.292;2023-12-20T06:51:02;10.75;;;2.83;;
65315;SDS011;51920;53.952;10.292;2023-12-20T06:53:29;14.67;;;2.80;;
65315;SDS011;51920;53.952;10.292;2023-12-20T06:55:56;9.65;;;3.60;;
65315;SDS011;51920;53.952;10.292;2023-12-20T06:58:23;9.32;;;2.58;;
65315;SDS011;51920;53.952;10.292;2023-12-20T07:00:50;11.07;;;2.45;;
65315;SDS011;51920;53.952;10.292;2023-12-20T07:03:18;7.50;;;2.35;;
65315;SDS011;51920;53.952;10.292;2023-12-20T07:05:44;8.63;;;2.60;;
65315;SDS011;51920;53.952;10.292;2023-12-20T07:08:11;7.50;;;2.35;;
65315;SDS011;51920;53.952;10.292;2023-12-20T07:10:40;10.88;;;2.63;;
65315;SDS011;51920;53.952;10.292;2023-12-20T07:13:08;8.73;;;2.33;;
65315;SDS011;51920;53.952;10.292;2023-12-20T07:15:35;12.10;;;2.90;;
65315;SDS011;51920;53.952;10.292;2023-12-20T07:18:03;6.87;;;2.23;;
65315;SDS011;51920;53.952;10.292;2023-12-20T07:20:31;16.52;;;3.83;;
65315;SDS011;51920;53.952;10.292;2023-12-20T07:22:59;10.40;;;3.13;;
65315;SDS011;51920;53.952;10.292;2023-12-20T07:25:26;10.50;;;2.60;;
65315;SDS011;51920;53.952;10.292;2023-12-20T07:27:53;13.25;;;2.78;;
65315;SDS011;51920;53.952;10.292;2023-12-20T07:30:19;11.53;;;2.57;;
65315;SDS011;51920;53.952;10.292;2023-12-20T07:32:46;9.63;;;2.67;;
65315;SDS011;51920;53.952;10.292;2023-12-20T07:35:15;9.68;;;2.53;;
65315;SDS011;51920;53.952;10.292;2023-12-20T07:37:42;10.25;;;2.80;;
65315;SDS011;51920;53.952;10.292;2023-12-20T07:40:09;14.48;;;3.63;;
65315;SDS011;51920;53.952;10.292;2023-12-20T07:42:36;23.73;;;3.30;;
65315;SDS011;51920;53.952;10.292;2023-12-20T07:45:03;19.58;;;4.13;;
65315;SDS011;51920;53.952;10.292;2023-12-20T07:47:30;14.13;;;3.00;;
65315;SDS011;51920;53.952;10.292;2023-12-20T07:49:57;12.82;;;3.10;;
65315;SDS011;51920;53.952;10.292;2023-12-20T07:52:24;11.95;;;2.78;;
65315;SDS011;51920;53.952;10.292;2023-12-20T07:54:52;8.97;;;2.30;;
65315;SDS011;51920;53.952;10.292;2023-12-20T07:57:19;11.52;;;2.45;;
65315;SDS011;51920;53.952;10.292;2023-12-20T07:59:46;12.88;;;2.95;;
65315;SDS011;51920;53.952;10.292;2023-12-20T08:02:12;8.00;;;2.22;;
65315;SDS011;51920;53.952;10.292;2023-12-20T08:04:39;10.73;;;2.80;;
65315;SDS011;51920;53.952;10.292;2023-12-20T08:07:07;10.03;;;2.37;;
65315;SDS011;51920;53.952;10.292;2023-12-20T08:09:34;10.93;;;2.70;;
65315;SDS011;51920;53.952;10.292;2023-12-20T08:12:03;11.88;;;3.13;;
65315;SDS011;51920;53.952;10.292;2023-12-20T08:14:30;7.95;;;2.55;;
65315;SDS011;51920;53.952;10.292;2023-12-20T08:16:58;8.15;;;2.40;;
65315;SDS011;51920;53.952;10.292;2023-12-20T08:19:24;9.20;;;1.93;;
65315;SDS011;51920;53.952;10.292;2023-12-20T08:21:51;11.77;;;2.58;;
65315;SDS011;51920;53.952;10.292;2023-12-20T08:24:18;10.05;;;2.47;;
65315;SDS011;51920;53.952;10.292;2023-12-20T08:26:45;10.55;;;2.40;;
65315;SDS011;51920;53.952;10.292;2023-12-20T08:29:13;10.93;;;3.20;;
65315;SDS011;51920;53.952;10.292;2023-12-20T08:31:40;12.43;;;3.00;;
65315;SDS011;51920;53.952;10.292;2023-12-20T08:34:07;14.80;;;2.53;;
65315;SDS011;51920;53.952;10.292;2023-12-20T08:36:34;15.18;;;3.08;;
65315;SDS011;51920;53.952;10.292;2023-12-20T08:39:01;14.15;;;3.55;;
65315;SDS011;51920;53.952;10.292;2023-12-20T08:41:30;16.00;;;2.83;;
65315;SDS011;51920;53.952;10.292;2023-12-20T08:43:56;10.50;;;2.60;;
65315;SDS011;51920;53.952;10.292;2023-12-20T08:46:23;7.60;;;2.50;;
65315;SDS011;51920;53.952;10.292;2023-12-20T08:48:50;8.55;;;2.60;;
65315;SDS011;51920;53.952;10.292;2023-12-20T08:51:17;12.02;;;3.08;;
65315;SDS011;51920;53.952;10.292;2023-12-20T08:53:44;11.93;;;3.00;;
65315;SDS011;51920;53.952;10.292;2023-12-20T08:56:11;12.20;;;2.90;;
65315;SDS011;51920;53.952;10.292;2023-12-20T08:58:38;12.15;;;2.60;;
65315;SDS011;51920;53.952;10.292;2023-12-20T09:01:05;11.43;;;2.85;;
65315;SDS011;51920;53.952;10.292;2023-12-20T09:03:32;12.88;;;2.58;;
65315;SDS011;51920;53.952;10.292;2023-12-20T09:05:59;15.32;;;2.95;;
65315;SDS011;51920;53.952;10.292;2023-12-20T09:08:26;9.17;;;2.40;;
65315;SDS011;51920;53.952;10.292;2023-12-20T09:10:53;6.85;;;2.20;;
65315;SDS011;51920;53.952;10.292;2023-12-20T09:13:19;9.07;;;2.88;;
65315;SDS011;51920;53.952;10.292;2023-12-20T09:15:47;7.22;;;2.13;;
65315;SDS011;51920;53.952;10.292;2023-12-20T09:18:14;7.78;;;2.50;;
65315;SDS011;51920;53.952;10.292;2023-12-20T09:20:40;7.77;;;2.67;;
65315;SDS011;51920;53.952;10.292;2023-12-20T09:23:07;6.82;;;2.08;;
65315;SDS011;51920;53.952;10.292;2023-12-20T09:25:34;5.43;;;1.95;;
65315;SDS011;51920;53.952;10.292;2023-12-20T09:28:01;5.57;;;2.05;;
65315;SDS011;51920;53.952;10.292;2023-12-20T09:30:28;4.13;;;1.75;;
65315;SDS011;51920;53.952;10.292;2023-12-20T09:32:55;5.97;;;1.80;;
65315;SDS011;51920;53.952;10.292;2023-12-20T09:35:22;4.88;;;1.85;;
65315;SDS011;51920;53.952;10.292;2023-12-20T09:37:50;5.38;;;1.92;;
65315;SDS011;51920;53.952;10.292;2023-12-20T09:40:20;6.13;;;1.90;;
65315;SDS011;51920;53.952;10.292;2023-12-20T09:43:03;5.85;;;1.65;;
65315;SDS011;51920;53.952;10.292;2023-12-20T09:45:32;8.13;;;1.77;;
65315;SDS011;51920;53.952;10.292;2023-12-20T09:47:59;4.30;;;1.67;;
65315;SDS011;51920;53.952;10.292;2023-12-20T09:50:26;4.07;;;1.75;;
65315;SDS011;51920;53.952;10.292;2023-12-20T09:52:54;5.28;;;1.50;;
65315;SDS011;51920;53.952;10.292;2023-12-20T09:55:25;3.17;;;1.58;;
65315;SDS011;51920;53.952;10.292;2023-12-20T09:57:55;4.10;;;1.50;;
65315;SDS011;51920;53.952;10.292;2023-12-20T10:00:22;3.53;;;1.52;;
65315;SDS011;51920;53.952;10.292;2023-12-20T10:02:58;6.50;;;1.58;;
65315;SDS011;51920;53.952;10.292;2023-12-20T10:05:27;3.85;;;1.58;;
65315;SDS011;51920;53.952;10.292;2023-12-20T10:07:55;4.95;;;1.85;;
65315;SDS011;51920;53.952;10.292;2023-12-20T10:10:23;5.53;;;1.50;;
65315;SDS011;51920;53.952;10.292;2023-12-20T10:13:04;4.20;;;1.40;;
65315;SDS011;51920;53.952;10.292;2023-12-20T10:15:36;4.75;;;1.63;;
65315;SDS011;51920;53.952;10.292;2023-12-20T10:18:04;6.95;;;1.73;;
65315;SDS011;51920;53.952;10.292;2023-12-20T10:20:31;4.20;;;1.70;;
65315;SDS011;51920;53.952;10.292;2023-12-20T10:22:59;4.37;;;1.87;;
65315;SDS011;51920;53.952;10.292;2023-12-20T10:25:27;5.53;;;1.88;;
65315;SDS011;51920;53.952;10.292;2023-12-20T10:28:08;7.70;;;3.05;;
65315;SDS011;51920;53.952;10.292;2023-12-20T10:30:35;4.80;;;1.90;;
65315;SDS011;51920;53.952;10.292;2023-12-20T10:33:02;6.55;;;2.55;;
65315;SDS011;51920;53.952;10.292;2023-12-20T10:35:29;6.57;;;2.10;;
65315;SDS011;51920;53.952;10.292;2023-12-20T10:37:56;7.10;;;2.50;;
65315;SDS011;51920;53.952;10.292;2023-12-20T10:40:23;7.07;;;2.30;;
65315;SDS011;51920;53.952;10.292;2023-12-20T10:42:54;6.53;;;2.00;;
65315;SDS011;51920;53.952;10.292;2023-12-20T10:45:22;8.00;;;2.47;;
65315;SDS011;51920;53.952;10.292;2023-12-20T10:47:50;4.97;;;1.70;;
65315;SDS011;51920;53.952;10.292;2023-12-20T10:50:18;8.98;;;2.95;;
65315;SDS011;51920;53.952;10.292;2023-12-20T10:52:47;7.32;;;2.13;;
65315;SDS011;51920;53.952;10.292;2023-12-20T10:55:14;6.18;;;1.50;;
65315;SDS011;51920;53.952;10.292;2023-12-20T10:57:41;8.90;;;1.88;;
65315;SDS011;51920;53.952;10.292;2023-12-20T11:00:09;6.63;;;1.40;;
65315;SDS011;51920;53.952;10.292;2023-12-20T11:02:41;8.95;;;1.52;;
65315;SDS011;51920;53.952;10.292;2023-12-20T11:05:26;3.80;;;1.50;;
65315;SDS011;51920;53.952;10.292;2023-12-20T11:08:01;7.70;;;1.67;;
65315;SDS011;51920;53.952;10.292;2023-12-20T11:10:38;3.10;;;1.40;;
65315;SDS011;51920;53.952;10.292;2023-12-20T11:13:23;4.80;;;1.50;;
65315;SDS011;51920;53.952;10.292;2023-12-20T11:15:56;5.10;;;2.00;;
65315;SDS011;51920;53.952;10.292;2023-12-20T11:18:30;3.75;;;1.42;;
65315;SDS011;51920;53.952;10.292;2023-12-20T11:21:06;2.72;;;1.30;;
65315;SDS011;51920;53.952;10.292;2023-12-20T11:23:33;2.65;;;1.40;;
65315;SDS011;51920;53.952;10.292;2023-12-20T11:26:01;3.60;;;1.40;;
65315;SDS011;51920;53.952;10.292;2023-12-20T11:28:29;4.68;;;1.52;;
65315;SDS011;51920;53.952;10.292;2023-12-20T11:30:57;5.35;;;1.50;;
65315;SDS011;51920;53.952;10.292;2023-12-20T11:33:37;4.13;;;1.40;;
65315;SDS011;51920;53.952;10.292;2023-12-20T11:36:12;5.78;;;2.10;;
65315;SDS011;51920;53.952;10.292;2023-12-20T11:38:55;4.00;;;1.33;;
65315;SDS011;51920;53.952;10.292;2023-12-20T11:41:24;4.10;;;1.50;;
65315;SDS011;51920;53.952;10.292;2023-12-20T11:43:55;3.00;;;1.77;;
65315;SDS011;51920;53.952;10.292;2023-12-20T11:46:22;3.70;;;1.70;;
65315;SDS011;51920;53.952;10.292;2023-12-20T11:48:50;4.60;;;2.30;;
65315;SDS011;51920;53.952;10.292;2023-12-20T11:51:17;5.17;;;1.83;;
65315;SDS011;51920;53.952;10.292;2023-12-20T11:53:43;4.97;;;1.77;;
65315;SDS011;51920;53.952;10.292;2023-12-20T11:56:10;5.30;;;1.75;;
65315;SDS011;51920;53.952;10.292;2023-12-20T11:58:37;6.28;;;2.10;;
65315;SDS011;51920;53.952;10.292;2023-12-20T12:01:04;6.40;;;1.50;;
65315;SDS011;51920;53.952;10.292;2023-12-20T12:03:35;8.93;;;2.13;;
65315;SDS011;51920;53.952;10.292;2023-12-20T12:06:02;5.55;;;1.65;;
65315;SDS011;51920;53.952;10.292;2023-12-20T12:08:31;6.68;;;1.70;;
65315;SDS011;51920;53.952;10.292;2023-12-20T12:10:58;4.68;;;2.13;;
65315;SDS011;51920;53.952;10.292;2023-12-20T12:13:24;4.13;;;1.88;;
65315;SDS011;51920;53.952;10.292;2023-12-20T12:15:53;7.93;;;1.80;;
65315;SDS011;51920;53.952;10.292;2023-12-20T12:18:20;8.90;;;2.20;;
65315;SDS011;51920;53.952;10.292;2023-12-20T12:20:47;8.50;;;2.13;;
65315;SDS011;51920;53.952;10.292;2023-12-20T12:23:14;8.10;;;2.25;;
65315;SDS011;51920;53.952;10.292;2023-12-20T12:25:49;4.55;;;1.90;;
65315;SDS011;51920;53.952;10.292;2023-12-20T12:28:15;8.80;;;1.73;;
65315;SDS011;51920;53.952;10.292;2023-12-20T12:30:43;10.18;;;2.10;;
65315;SDS011;51920;53.952;10.292;2023-12-20T12:33:22;8.07;;;2.10;;
65315;SDS011;51920;53.952;10.292;2023-12-20T12:35:48;11.52;;;1.95;;
65315;SDS011;51920;53.952;10.292;2023-12-20T12:38:15;11.98;;;2.35;;
65315;SDS011;51920;53.952;10.292;2023-12-20T12:40:43;10.57;;;1.73;;
65315;SDS011;51920;53.952;10.292;2023-12-20T12:43:10;9.65;;;2.22;;
65315;SDS011;51920;53.952;10.292;2023-12-20T12:45:37;9.05;;;2.00;;
65315;SDS011;51920;53.952;10.292;2023-12-20T12:48:04;9.43;;;2.17;;
65315;SDS011;51920;53.952;10.292;2023-12-20T12:50:31;12.60;;;2.80;;
65315;SDS011;51920;53.952;10.292;2023-12-20T12:52:58;11.40;;;2.47;;
65315;SDS011;51920;53.952;10.292;2023-12-20T12:55:25;10.93;;;2.33;;
65315;SDS011;51920;53.952;10.292;2023-12-20T12:57:52;11.13;;;2.97;;
65315;SDS011;51920;53.952;10.292;2023-12-20T13:00:18;7.88;;;2.40;;
65315;SDS011;51920;53.952;10.292;2023-12-20T13:02:46;10.70;;;2.40;;
65315;SDS011;51920;53.952;10.292;2023-12-20T13:05:12;13.27;;;2.40;;
65315;SDS011;51920;53.952;10.292;2023-12-20T13:07:39;13.43;;;2.47;;
65315;SDS011;51920;53.952;10.292;2023-12-20T13:10:06;8.73;;;2.60;;
65315;SDS011;51920;53.952;10.292;2023-12-20T13:12:33;13.55;;;2.38;;
65315;SDS011;51920;53.952;10.292;2023-12-20T13:15:00;10.65;;;2.40;;
65315;SDS011;51920;53.952;10.292;2023-12-20T13:17:27;11.00;;;2.40;;
65315;SDS011;51920;53.952;10.292;2023-12-20T13:19:54;14.65;;;4.25;;
65315;SDS011;51920;53.952;10.292;2023-12-20T13:22:21;11.82;;;3.60;;
65315;SDS011;51920;53.952;10.292;2023-12-20T13:24:48;15.88;;;4.00;;
65315;SDS011;51920;53.952;10.292;2023-12-20T13:27:15;13.65;;;4.00;;
65315;SDS011;51920;53.952;10.292;2023-12-20T13:29:42;12.87;;;3.80;;
65315;SDS011;51920;53.952;10.292;2023-12-20T13:32:08;16.27;;;4.50;;
65315;SDS011;51920;53.952;10.292;2023-12-20T13:34:35;14.00;;;4.60;;
65315;SDS011;51920;53.952;10.292;2023-12-20T13:37:02;20.48;;;4.80;;
65315;SDS011;51920;53.952;10.292;2023-12-20T13:39:31;12.75;;;4.28;;
65315;SDS011;51920;53.952;10.292;2023-12-20T13:41:58;15.00;;;4.73;;
65315;SDS011;51920;53.952;10.292;2023-12-20T13:44:25;15.38;;;4.60;;
65315;SDS011;51920;53.952;10.292;2023-12-20T13:46:52;18.38;;;4.13;;
65315;SDS011;51920;53.952;10.292;2023-12-20T13:49:19;12.18;;;3.20;;
65315;SDS011;51920;53.952;10.292;2023-12-20T13:51:47;14.07;;;4.22;;
65315;SDS011;51920;53.952;10.292;2023-12-20T13:54:14;13.77;;;4.37;;
65315;SDS011;51920;53.952;10.292;2023-12-20T13:56:43;16.55;;;4.13;;
65315;SDS011;51920;53.952;10.292;2023-12-20T13:59:12;18.17;;;3.97;;
65315;SDS011;51920;53.952;10.292;2023-12-20T14:01:40;11.80;;;3.60;;
65315;SDS011;51920;53.952;10.292;2023-12-20T14:04:07;14.63;;;4.18;;
65315;SDS011;51920;53.952;10.292;2023-12-20T14:06:34;17.30;;;3.50;;
65315;SDS011;51920;53.952;10.292;2023-12-20T14:09:01;15.98;;;3.90;;
65315;SDS011;51920;53.952;10.292;2023-12-20T14:11:29;17.45;;;4.38;;
65315;SDS011;51920;53.952;10.292;2023-12-20T14:13:56;16.88;;;4.25;;
65315;SDS011;51920;53.952;10.292;2023-12-20T14:16:24;16.98;;;4.50;;
65315;SDS011;51920;53.952;10.292;2023-12-20T14:18:51;14.33;;;4.10;;
65315;SDS011;51920;53.952;10.292;2023-12-20T14:21:23;14.02;;;3.63;;
65315;SDS011;51920;53.952;10.292;2023-12-20T14:23:50;19.15;;;4.68;;
65315;SDS011;51920;53.952;10.292;2023-12-20T14:26:18;16.73;;;4.20;;
65315;SDS011;51920;53.952;10.292;2023-12-20T14:28:45;13.80;;;3.67;;
65315;SDS011;51920;53.952;10.292;2023-12-20T14:31:12;14.87;;;3.50;;